Time;durP1;ratioP1;P1;durP2;ratioP2;P2;SDS_P1;SDS_P2;PMS_P1;PMS_P2;Temp;Humidity;BMP_temperature;BMP_pressure;BME280_temperature;BME280_humidity;BME280_pressure;Samples;Min_cycle;Max_cycle;Signal;HPM_P1;HPM_P2
2022/05/23 00:00:10;;;;;;;6.03;2.80;;;12.90;70.20;;;;;;4820839;29;20823;-70
2022/05/23 00:02:35;;;;;;;4.30;2.70;;;12.80;70.20;;;;;;4821559;29;20341;-70
2022/05/23 00:05:01;;;;;;;4.50;2.50;;;12.80;70.10;;;;;;4829247;29;20286;-70
2022/05/23 00:07:37;;;;;;;6.63;2.50;;;12.80;70.40;;;;;;4850600;29;20449;-69
2022/05/23 00:10:05;;;;;;;4.30;2.50;;;12.80;70.30;;;;;;4827770;29;20522;-70
2022/05/23 00:12:31;;;;;;;6.80;2.43;;;12.80;70.60;;;;;;4806383;29;20293;-70
2022/05/23 00:14:57;;;;;;;4.87;2.40;;;12.80;70.50;;;;;;4828064;29;20820;-70
2022/05/23 00:17:23;;;;;;;5.17;2.37;;;12.70;70.70;;;;;;4822743;29;20307;-70
2022/05/23 00:19:49;;;;;;;7.30;2.37;;;12.70;70.70;;;;;;4818925;29;20042;-70
2022/05/23 00:22:16;;;;;;;4.60;2.47;;;12.70;70.70;;;;;;4808131;29;20133;-70
2022/05/23 00:24:42;;;;;;;7.60;2.77;;;12.70;70.70;;;;;;4850476;29;20053;-69
2022/05/23 00:27:10;;;;;;;6.97;2.63;;;12.80;70.70;;;;;;4824209;29;20331;-70
2022/05/23 00:29:36;;;;;;;6.15;2.50;;;12.80;70.70;;;;;;4823933;29;20299;-70
2022/05/23 00:37:31;;;;;;;7.28;2.80;;;12.80;70.40;;;;;;4850169;29;20105;-70
2022/05/23 00:39:57;;;;;;;4.37;1.87;;;12.80;70.40;;;;;;4847181;29;20511;-70
2022/05/23 00:45:15;;;;;;;7.20;2.47;;;12.80;70.20;;;;;;4850287;29;20391;-70
2022/05/23 00:47:41;;;;;;;8.10;2.45;;;12.80;70.00;;;;;;4808789;29;20847;-70
2022/05/23 00:50:08;;;;;;;7.93;2.78;;;12.80;70.00;;;;;;4824805;29;20498;-70
2022/05/23 00:52:42;;;;;;;5.57;2.57;;;12.80;69.80;;;;;;4840679;29;20168;-70
2022/05/23 00:55:23;;;;;;;5.00;2.53;;;12.80;69.90;;;;;;4825962;29;20644;-70
2022/05/23 00:57:52;;;;;;;6.13;2.72;;;12.80;69.80;;;;;;4848183;29;20051;-70
2022/05/23 01:00:19;;;;;;;6.53;2.85;;;12.80;69.80;;;;;;4834920;29;20039;-70
2022/05/23 01:02:51;;;;;;;7.35;2.80;;;12.80;70.00;;;;;;4820684;29;20126;-70
2022/05/23 01:05:18;;;;;;;4.67;2.53;;;12.80;69.90;;;;;;4833428;29;20045;-70
2022/05/23 01:07:44;;;;;;;4.88;2.58;;;12.90;69.90;;;;;;4807621;29;20785;-70
2022/05/23 01:10:10;;;;;;;8.23;3.00;;;12.90;69.90;;;;;;4820220;29;20090;-70
2022/05/23 01:12:36;;;;;;;4.47;2.40;;;12.90;70.00;;;;;;4842193;29;20129;-70
2022/05/23 01:15:03;;;;;;;8.07;2.53;;;12.90;69.90;;;;;;4825492;29;20295;-70
2022/05/23 01:17:29;;;;;;;4.90;2.30;;;13.00;69.90;;;;;;4816209;29;20303;-69
2022/05/23 01:19:55;;;;;;;7.00;2.57;;;13.00;69.90;;;;;;4803900;29;20745;-69
2022/05/23 01:22:35;;;;;;;5.13;2.40;;;13.00;69.90;;;;;;4805794;29;20055;-69
2022/05/23 01:25:15;;;;;;;6.07;2.60;;;13.00;69.70;;;;;;4853787;29;20292;-69
2022/05/23 01:27:41;;;;;;;5.03;2.25;;;13.10;69.70;;;;;;4817902;29;20303;-70
2022/05/23 01:30:08;;;;;;;3.87;2.27;;;13.10;69.40;;;;;;4802414;29;20142;-69
2022/05/23 01:32:34;;;;;;;5.68;2.35;;;13.10;69.40;;;;;;4834519;29;20069;-70
2022/05/23 01:35:00;;;;;;;6.57;2.10;;;13.10;69.50;;;;;;4840821;29;20084;-70
2022/05/23 01:37:25;;;;;;;4.10;2.03;;;13.20;69.50;;;;;;4842998;29;20931;-70
2022/05/23 01:39:51;;;;;;;5.73;2.47;;;13.20;69.50;;;;;;4841226;29;20079;-70
2022/05/23 01:42:17;;;;;;;6.50;2.57;;;13.20;69.60;;;;;;4821723;29;20423;-70
2022/05/23 01:44:42;;;;;;;5.67;2.23;;;13.20;69.50;;;;;;4831692;29;20054;-70
2022/05/23 01:47:15;;;;;;;4.07;2.43;;;13.20;69.40;;;;;;4820264;29;20046;-70
2022/05/23 01:49:41;;;;;;;7.63;2.50;;;13.20;69.50;;;;;;4820365;29;20582;-70
2022/05/23 01:52:08;;;;;;;3.53;2.23;;;13.20;69.50;;;;;;4838170;29;20295;-70
2022/05/23 01:54:35;;;;;;;5.47;2.40;;;13.20;69.40;;;;;;4847546;29;20050;-69
2022/05/23 01:57:02;;;;;;;3.57;2.30;;;13.20;69.40;;;;;;4839049;29;20295;-69
2022/05/23 02:02:13;;;;;;;3.87;2.30;;;13.20;69.30;;;;;;4840404;29;20437;-70
2022/05/23 02:04:38;;;;;;;5.77;2.70;;;13.20;69.20;;;;;;4819917;29;20364;-69
2022/05/23 02:07:05;;;;;;;5.47;2.30;;;13.20;69.20;;;;;;4834981;29;20291;-70
2022/05/23 02:09:31;;;;;;;6.33;2.67;;;13.20;69.20;;;;;;4849273;29;20101;-70
2022/05/23 02:11:57;;;;;;;5.13;2.53;;;13.20;69.20;;;;;;4806251;29;20781;-70
2022/05/23 02:14:23;;;;;;;4.83;2.73;;;13.10;69.30;;;;;;4816466;29;20310;-70
2022/05/23 02:16:49;;;;;;;4.80;2.40;;;13.10;69.20;;;;;;4830827;29;20125;-70
2022/05/23 02:19:15;;;;;;;5.13;2.67;;;13.00;69.20;;;;;;4844210;29;20049;-70
2022/05/23 02:21:41;;;;;;;4.63;2.37;;;13.00;69.20;;;;;;4823889;29;20378;-70
2022/05/23 02:24:07;;;;;;;5.60;2.43;;;12.90;69.40;;;;;;4845383;29;20291;-70
2022/05/23 02:26:33;;;;;;;5.87;2.53;;;12.80;69.60;;;;;;4827415;29;20118;-70
2022/05/23 02:29:00;;;;;;;6.33;2.50;;;12.80;69.50;;;;;;4841721;29;20356;-70
2022/05/23 02:31:27;;;;;;;4.60;2.57;;;12.80;69.50;;;;;;4830444;29;20299;-70
2022/05/23 02:33:53;;;;;;;5.40;2.60;;;12.70;69.50;;;;;;4817525;29;20315;-70
2022/05/23 02:36:18;;;;;;;8.10;2.90;;;12.70;69.80;;;;;;4844989;29;20302;-70
2022/05/23 02:38:44;;;;;;;5.90;2.83;;;12.60;69.90;;;;;;4829659;29;20073;-69
2022/05/23 02:41:10;;;;;;;4.33;2.63;;;12.50;70.10;;;;;;4804273;29;20050;-70
2022/05/23 02:43:36;;;;;;;5.93;2.83;;;12.50;70.20;;;;;;4818308;29;20149;-70
2022/05/23 02:46:01;;;;;;;6.13;2.60;;;12.40;70.30;;;;;;4820286;29;20061;-70
2022/05/23 02:48:27;;;;;;;5.13;2.70;;;12.30;70.50;;;;;;4824775;29;20041;-70
2022/05/23 02:50:53;;;;;;;5.47;2.80;;;12.30;70.50;;;;;;4841482;29;20105;-70
2022/05/23 02:53:18;;;;;;;4.47;2.70;;;12.30;70.40;;;;;;4817720;29;20050;-69
2022/05/23 02:55:44;;;;;;;3.77;2.83;;;12.20;70.60;;;;;;4856448;29;20515;-69
2022/05/23 02:58:10;;;;;;;4.37;2.67;;;12.20;70.80;;;;;;4817215;29;20042;-69
2022/05/23 03:00:37;;;;;;;5.93;3.08;;;12.10;70.80;;;;;;4801136;29;20073;-69
2022/05/23 03:03:04;;;;;;;5.90;3.40;;;12.10;71.20;;;;;;4819081;29;20481;-69
2022/05/23 03:05:35;;;;;;;5.82;2.70;;;12.00;71.40;;;;;;4826841;29;20050;-69
2022/05/23 03:08:02;;;;;;;5.72;2.90;;;12.00;71.30;;;;;;4815291;29;20180;-69
2022/05/23 03:10:27;;;;;;;4.43;3.17;;;12.00;71.60;;;;;;4851149;29;20060;-70
2022/05/23 03:12:53;;;;;;;4.10;2.90;;;12.00;71.60;;;;;;4839582;29;20051;-70
2022/05/23 03:15:19;;;;;;;4.73;2.67;;;12.00;71.50;;;;;;4818694;29;20129;-69
2022/05/23 03:17:45;;;;;;;7.38;2.85;;;12.00;71.60;;;;;;4833923;29;20813;-69
2022/05/23 03:20:11;;;;;;;4.83;2.90;;;12.00;71.80;;;;;;4853664;29;20129;-69
2022/05/23 03:28:09;;;;;;;6.70;2.95;;;11.90;72.00;;;;;;4821436;29;20357;-69
2022/05/23 03:30:35;;;;;;;4.67;2.87;;;12.00;72.10;;;;;;4819220;29;20050;-69
2022/05/23 03:33:02;;;;;;;4.23;2.30;;;12.00;72.20;;;;;;4824645;29;20058;-69
2022/05/23 03:35:32;;;;;;;6.63;3.00;;;12.00;72.40;;;;;;4844161;29;20111;-69
2022/05/23 03:37:58;;;;;;;4.65;2.35;;;12.00;72.40;;;;;;4817027;29;20042;-69
2022/05/23 03:40:24;;;;;;;4.07;2.40;;;12.00;72.30;;;;;;4813977;29;20268;-69
2022/05/23 03:42:49;;;;;;;5.57;2.70;;;12.00;72.40;;;;;;4830404;29;20047;-69
2022/05/23 03:45:16;;;;;;;5.20;2.20;;;12.00;72.50;;;;;;4817080;29;20046;-69
2022/05/23 03:47:42;;;;;;;4.35;2.50;;;12.00;72.40;;;;;;4832267;29;20062;-69
2022/05/23 03:50:08;;;;;;;6.67;2.60;;;12.00;72.60;;;;;;4801861;29;20118;-69
2022/05/23 03:52:34;;;;;;;4.30;2.90;;;12.00;72.90;;;;;;4837774;29;20487;-69
2022/05/23 03:55:00;;;;;;;5.75;2.83;;;11.90;72.70;;;;;;4805604;29;20656;-70
2022/05/23 03:57:25;;;;;;;5.60;2.50;;;11.90;72.90;;;;;;4826614;29;20039;-70
2022/05/23 03:59:54;;;;;;;5.63;2.73;;;11.90;72.90;;;;;;4819102;29;20047;-70
2022/05/23 04:02:20;;;;;;;6.13;2.85;;;11.90;72.70;;;;;;4817866;29;20075;-70
2022/05/23 04:04:46;;;;;;;5.10;2.47;;;12.00;72.80;;;;;;4815658;29;20137;-70
2022/05/23 04:07:13;;;;;;;4.95;2.28;;;12.00;72.90;;;;;;4802819;29;20145;-70
2022/05/23 04:09:40;;;;;;;6.07;2.40;;;12.00;73.00;;;;;;4818691;29;20095;-70
2022/05/23 04:12:06;;;;;;;8.18;2.92;;;12.10;72.80;;;;;;4816625;29;20049;-70
2022/05/23 04:14:32;;;;;;;5.95;2.78;;;12.10;72.80;;;;;;4850841;29;20107;-70
2022/05/23 04:16:58;;;;;;;5.97;2.70;;;12.10;72.90;;;;;;4846934;29;20183;-69
2022/05/23 04:19:24;;;;;;;4.33;2.80;;;12.20;72.80;;;;;;4821223;29;20129;-69
2022/05/23 04:21:50;;;;;;;5.53;2.50;;;12.20;72.60;;;;;;4819668;29;20385;-69
2022/05/23 04:24:17;;;;;;;4.70;2.73;;;12.30;72.60;;;;;;4820969;29;20356;-69
2022/05/23 04:26:43;;;;;;;6.30;2.40;;;12.30;72.60;;;;;;4851921;29;20154;-69
2022/05/23 04:29:09;;;;;;;6.70;2.78;;;12.40;72.60;;;;;;4831577;29;20140;-70
2022/05/23 04:31:36;;;;;;;5.33;2.60;;;12.40;72.50;;;;;;4822494;29;20133;-70
2022/05/23 04:36:50;;;;;;;5.13;2.70;;;12.50;72.40;;;;;;4850804;29;20427;-70
2022/05/23 04:39:16;;;;;;;7.05;2.80;;;12.50;72.00;;;;;;4827520;29;20045;-70
2022/05/23 04:41:42;;;;;;;3.47;2.27;;;12.60;72.00;;;;;;4850513;29;20407;-70
2022/05/23 04:44:08;;;;;;;5.93;2.50;;;12.60;71.90;;;;;;4836135;29;20050;-70
2022/05/23 04:46:34;;;;;;;4.97;2.83;;;12.60;71.70;;;;;;4826010;29;20121;-70
2022/05/23 04:51:44;;;;;;;4.40;2.80;;;12.70;71.40;;;;;;4856880;29;20500;-69
2022/05/23 04:54:10;;;;;;;6.37;2.63;;;12.70;71.30;;;;;;4802712;29;20046;-70
2022/05/23 04:56:37;;;;;;;4.40;2.70;;;12.80;71.10;;;;;;4821835;29;20042;-70
2022/05/23 04:59:03;;;;;;;4.72;2.90;;;12.80;70.90;;;;;;4851806;29;20179;-70
2022/05/23 05:01:29;;;;;;;7.10;2.72;;;12.90;70.90;;;;;;4819487;29;20077;-70
2022/05/23 05:03:57;;;;;;;4.50;2.87;;;13.00;70.90;;;;;;4848262;29;20348;-70
2022/05/23 05:06:25;;;;;;;4.38;2.85;;;13.10;70.70;;;;;;4816360;29;20363;-70
2022/05/23 05:08:51;;;;;;;6.07;2.97;;;13.20;70.50;;;;;;4827508;29;20138;-70
2022/05/23 05:11:17;;;;;;;5.90;2.63;;;13.50;70.20;;;;;;4831412;29;20303;-70
2022/05/23 05:13:44;;;;;;;9.07;3.10;;;13.70;69.40;;;;;;4841590;29;20319;-70
2022/05/23 05:16:12;;;;;;;4.77;3.00;;;13.80;69.10;;;;;;4816154;29;20408;-70
2022/05/23 05:18:38;;;;;;;6.80;3.40;;;13.80;69.00;;;;;;4803411;29;20299;-70
2022/05/23 05:21:10;;;;;;;7.80;3.27;;;13.90;68.70;;;;;;4809023;29;20284;-70
2022/05/23 05:23:36;;;;;;;6.27;3.40;;;14.00;68.30;;;;;;4818396;29;20054;-70
2022/05/23 05:26:05;;;;;;;5.17;2.83;;;14.00;68.10;;;;;;4822667;29;20823;-70
2022/05/23 05:28:32;;;;;;;6.13;3.07;;;14.00;68.20;;;;;;4834666;29;20419;-70
2022/05/23 05:31:19;;;;;;;3.70;2.87;;;14.20;68.30;;;;;;4830283;29;20350;-70
2022/05/23 05:33:53;;;;;;;5.83;2.80;;;14.40;67.90;;;;;;4832993;29;20322;-70
2022/05/23 05:36:24;;;;;;;6.35;3.40;;;14.60;67.40;;;;;;4850861;29;20338;-70
2022/05/23 05:39:01;;;;;;;3.67;3.10;;;14.70;67.00;;;;;;4850983;29;20042;-70
2022/05/23 05:41:41;;;;;;;6.07;2.80;;;14.80;67.30;;;;;;4809321;29;20328;-70
2022/05/23 05:44:13;;;;;;;8.13;3.27;;;15.00;66.80;;;;;;4822008;29;20294;-70
2022/05/23 05:46:42;;;;;;;8.47;3.17;;;15.40;66.80;;;;;;4843499;29;20792;-70
2022/05/23 05:49:22;;;;;;;5.47;3.00;;;16.10;65.60;;;;;;4836983;29;20872;-70
2022/05/23 05:51:51;;;;;;;4.23;2.37;;;16.90;63.30;;;;;;4834156;29;20306;-70
2022/05/23 05:54:26;;;;;;;5.70;2.60;;;17.40;61.50;;;;;;4823149;29;20392;-70
2022/05/23 05:56:52;;;;;;;4.67;2.83;;;17.90;60.40;;;;;;4829053;29;20288;-71
2022/05/23 05:59:19;;;;;;;4.57;2.80;;;18.30;59.50;;;;;;4825229;29;20153;-71
2022/05/23 06:01:44;;;;;;;4.93;3.07;;;18.60;58.10;;;;;;4852767;29;20691;-70
2022/05/23 06:04:10;;;;;;;4.73;2.83;;;18.70;58.00;;;;;;4812402;29;20300;-70
2022/05/23 06:12:04;;;;;;;8.93;3.10;;;19.50;56.70;;;;;;4839180;29;20856;-70
2022/05/23 06:14:30;;;;;;;6.17;3.00;;;19.80;56.20;;;;;;4804887;29;20402;-70
2022/05/23 06:16:56;;;;;;;5.83;3.20;;;20.00;55.60;;;;;;4816796;29;20119;-70
2022/05/23 06:19:22;;;;;;;5.20;2.90;;;20.10;55.40;;;;;;4796859;29;20038;-70
2022/05/23 06:21:47;;;;;;;5.80;3.07;;;20.10;54.90;;;;;;4823503;29;20475;-70
2022/05/23 06:24:14;;;;;;;5.80;2.83;;;20.00;55.20;;;;;;4833907;29;20042;-70
2022/05/23 06:26:40;;;;;;;5.90;3.23;;;19.80;55.10;;;;;;4819528;29;20053;-70
2022/05/23 06:29:06;;;;;;;5.70;3.70;;;19.40;55.80;;;;;;4824401;29;20742;-71
2022/05/23 06:31:33;;;;;;;6.23;3.20;;;18.90;57.00;;;;;;4824693;29;20382;-71
2022/05/23 06:33:59;;;;;;;8.40;3.50;;;18.70;57.90;;;;;;4851874;29;20054;-70
2022/05/23 06:36:25;;;;;;;6.30;3.60;;;18.70;58.50;;;;;;4821493;29;20629;-70
2022/05/23 06:38:50;;;;;;;6.53;3.60;;;18.80;58.30;;;;;;4850667;29;20733;-70
2022/05/23 06:41:16;;;;;;;7.23;3.63;;;18.90;57.90;;;;;;4824156;29;20531;-70
2022/05/23 06:43:43;;;;;;;5.77;3.10;;;19.10;57.90;;;;;;4820538;29;20145;-70
2022/05/23 06:46:11;;;;;;;6.03;3.10;;;19.10;57.70;;;;;;4805845;29;20791;-70
2022/05/23 06:48:38;;;;;;;7.47;3.47;;;19.10;57.50;;;;;;4825330;29;20295;-70
2022/05/23 06:51:04;;;;;;;7.10;3.33;;;19.00;57.50;;;;;;4864001;29;20362;-70
2022/05/23 06:53:30;;;;;;;4.97;3.63;;;19.00;58.00;;;;;;4807741;29;20901;-70
2022/05/23 06:55:56;;;;;;;8.03;3.20;;;19.00;58.40;;;;;;4815948;29;20303;-70
2022/05/23 06:58:23;;;;;;;4.83;3.30;;;18.80;58.40;;;;;;4821662;29;20292;-70
2022/05/23 07:00:50;;;;;;;7.30;3.60;;;18.60;59.00;;;;;;4791216;29;20299;-71
2022/05/23 07:03:16;;;;;;;8.43;3.70;;;18.40;59.20;;;;;;4846952;29;20292;-71
2022/05/23 07:13:56;;;;;;;7.43;3.63;;;17.70;62.00;;;;;;4844698;29;20051;-71
2022/05/23 07:16:24;;;;;;;9.53;3.63;;;17.70;62.20;;;;;;4815643;29;20148;-71
2022/05/23 07:18:49;;;;;;;6.13;3.70;;;17.70;62.60;;;;;;4847950;29;20331;-71
2022/05/23 07:21:15;;;;;;;8.13;4.00;;;17.80;62.10;;;;;;4847807;29;20346;-71
2022/05/23 07:23:41;;;;;;;5.23;3.63;;;17.90;62.30;;;;;;4815291;29;20046;-71
2022/05/23 07:26:10;;;;;;;8.37;3.93;;;18.10;62.20;;;;;;4855247;29;20502;-71
2022/05/23 07:28:36;;;;;;;6.73;3.70;;;18.20;62.20;;;;;;4799536;29;20857;-70
2022/05/23 07:31:02;;;;;;;6.20;3.47;;;18.40;62.00;;;;;;4813707;29;20650;-70
2022/05/23 07:33:29;;;;;;;6.70;3.80;;;18.60;62.10;;;;;;4844851;29;20316;-70
2022/05/23 07:36:00;;;;;;;5.20;3.30;;;18.80;61.50;;;;;;4814709;29;20335;-71
2022/05/23 07:38:28;;;;;;;7.67;3.63;;;18.80;61.20;;;;;;4845024;29;20387;-72
2022/05/23 07:40:54;;;;;;;7.73;3.07;;;18.90;60.80;;;;;;4812394;29;20290;-72
2022/05/23 07:43:21;;;;;;;7.57;3.80;;;19.00;61.10;;;;;;4829741;29;20623;-71
2022/05/23 07:45:49;;;;;;;6.47;4.13;;;19.20;61.10;;;;;;4849044;29;20291;-71
2022/05/23 07:48:15;;;;;;;6.63;3.80;;;19.40;60.70;;;;;;4848737;29;20303;-71
2022/05/23 07:50:45;;;;;;;5.73;3.67;;;19.60;60.20;;;;;;4805234;29;20287;-71
2022/05/23 08:01:27;;;;;;;9.07;4.00;;;19.80;59.20;;;;;;4829307;29;20464;-70
2022/05/23 08:03:53;;;;;;;6.17;3.70;;;19.80;59.60;;;;;;4848014;29;20287;-71
2022/05/23 08:06:18;;;;;;;7.40;3.90;;;20.00;59.80;;;;;;4816901;29;20292;-72
2022/05/23 08:08:44;;;;;;;15.80;4.50;;;20.10;59.50;;;;;;4818809;29;20533;-72
2022/05/23 08:11:10;;;;;;;7.03;4.13;;;20.20;59.60;;;;;;4817507;29;20513;-72
2022/05/23 08:13:37;;;;;;;5.73;3.80;;;20.40;60.30;;;;;;4804622;29;20042;-71
2022/05/23 08:16:04;;;;;;;7.23;3.40;;;20.50;58.60;;;;;;4818616;29;20556;-71
2022/05/23 08:18:30;;;;;;;6.37;3.87;;;20.60;58.90;;;;;;4801825;29;20314;-71
2022/05/23 08:20:55;;;;;;;6.67;3.93;;;20.80;59.00;;;;;;4802009;29;20046;-71
2022/05/23 08:23:21;;;;;;;7.80;4.40;;;20.90;58.40;;;;;;4816854;29;20068;-72
2022/05/23 08:25:47;;;;;;;7.57;4.00;;;20.90;58.00;;;;;;4815682;29;20084;-72
2022/05/23 08:28:13;;;;;;;6.83;3.77;;;20.90;57.60;;;;;;4828426;29;20127;-71
2022/05/23 08:30:39;;;;;;;8.10;4.10;;;21.10;57.50;;;;;;4844842;29;20061;-71
2022/05/23 08:33:05;;;;;;;11.80;4.17;;;21.30;57.10;;;;;;4797430;29;20050;-71
2022/05/23 08:35:31;;;;;;;8.73;4.33;;;21.40;56.40;;;;;;4813693;29;20610;-71
2022/05/23 08:37:58;;;;;;;8.80;4.00;;;21.50;56.40;;;;;;4813769;29;20031;-71
2022/05/23 08:40:35;;;;;;;8.57;4.70;;;21.60;56.60;;;;;;4817651;29;20050;-71
2022/05/23 08:43:05;;;;;;;7.67;4.10;;;21.60;55.80;;;;;;4812194;29;20050;-71
2022/05/23 08:45:35;;;;;;;8.70;4.50;;;21.60;56.10;;;;;;4818509;29;20054;-71
2022/05/23 08:48:28;;;;;;;9.10;4.40;;;21.60;55.60;;;;;;4816414;29;20118;-71
2022/05/23 08:51:26;;;;;;;5.87;4.47;;;21.70;55.60;;;;;;4845302;29;20077;-71
2022/05/23 08:54:10;;;;;;;7.07;4.27;;;21.90;54.80;;;;;;4827107;29;20126;-72
2022/05/23 08:56:40;;;;;;;7.33;4.40;;;22.10;55.40;;;;;;4829831;29;20094;-71
2022/05/23 08:59:26;;;;;;;10.20;4.30;;;22.10;55.50;;;;;;4830757;29;20046;-71
2022/05/23 09:02:03;;;;;;;7.67;4.70;;;22.10;55.50;;;;;;4832879;29;20046;-71
2022/05/23 09:04:47;;;;;;;17.10;4.77;;;22.20;56.00;;;;;;4801749;29;20077;-71
2022/05/23 09:07:29;;;;;;;6.63;4.27;;;22.30;55.50;;;;;;4831001;29;20115;-73
2022/05/23 09:09:59;;;;;;;7.53;4.77;;;22.40;54.90;;;;;;4848852;29;20465;-72
2022/05/23 09:12:25;;;;;;;7.47;4.30;;;22.40;55.20;;;;;;4818975;29;20297;-72
2022/05/23 09:14:51;;;;;;;7.43;4.57;;;22.40;55.40;;;;;;4802195;29;20097;-72
2022/05/23 09:17:25;;;;;;;8.33;5.03;;;22.50;55.90;;;;;;4803307;29;20491;-73
2022/05/23 09:20:03;;;;;;;9.73;4.40;;;22.60;55.10;;;;;;4817236;29;20091;-72
2022/05/23 09:22:55;;;;;;;9.43;4.87;;;22.60;55.00;;;;;;4848401;29;20504;-72
2022/05/23 09:25:24;;;;;;;7.53;4.57;;;22.70;54.50;;;;;;4822889;29;20039;-72
2022/05/23 09:28:05;;;;;;;5.00;3.60;;;22.80;54.70;;;;;;4844192;29;20472;-72
2022/05/23 09:30:33;;;;;;;8.60;4.83;;;22.80;55.30;;;;;;4842264;29;20492;-72
2022/05/23 09:33:02;;;;;;;7.53;4.33;;;23.00;55.20;;;;;;4816461;29;21414;-72
2022/05/23 09:35:41;;;;;;;7.57;4.43;;;23.30;54.90;;;;;;4847628;29;20042;-72
2022/05/23 09:38:16;;;;;;;7.07;4.30;;;23.60;54.30;;;;;;4832180;29;20049;-72
2022/05/23 09:40:43;;;;;;;7.20;5.07;;;23.80;52.60;;;;;;4834723;29;20736;-72
2022/05/23 09:49:06;;;;;;;7.13;4.47;;;23.90;52.60;;;;;;4809171;29;20403;-73
2022/05/23 09:51:46;;;;;;;8.20;4.40;;;24.00;52.80;;;;;;4821482;29;20157;-72
2022/05/23 09:54:23;;;;;;;7.60;4.47;;;24.10;52.20;;;;;;4817880;29;20064;-72
2022/05/23 09:56:50;;;;;;;5.27;3.50;;;24.20;52.60;;;;;;4819624;29;20052;-72
2022/05/23 09:59:27;;;;;;;7.77;4.63;;;24.50;52.80;;;;;;4818950;29;20044;-72
2022/05/23 10:01:53;;;;;;;8.37;4.00;;;24.80;51.30;;;;;;4830981;29;20050;-72
2022/05/23 10:04:28;;;;;;;7.00;4.23;;;25.00;50.30;;;;;;4817117;29;20073;-72
2022/05/23 10:06:55;;;;;;;6.90;4.10;;;25.10;50.40;;;;;;4840204;29;20038;-72
2022/05/23 10:09:30;;;;;;;6.80;4.37;;;25.40;49.90;;;;;;4828630;29;20054;-72
2022/05/23 10:12:08;;;;;;;7.00;3.93;;;25.60;50.40;;;;;;4833053;29;20054;-72
2022/05/23 10:14:51;;;;;;;7.77;4.27;;;25.60;50.60;;;;;;4827190;29;20053;-72
2022/05/23 10:18:03;;;;;;;6.00;4.83;;;25.60;49.20;;;;;;4798853;29;20500;-72
2022/05/23 10:20:37;;;;;;;9.87;5.20;;;25.30;49.00;;;;;;4798138;29;20055;-72
2022/05/23 10:23:07;;;;;;;9.82;5.63;;;25.10;51.00;;;;;;4801343;29;20597;-72
2022/05/23 10:25:51;;;;;;;7.07;4.70;;;25.20;51.00;;;;;;4812703;29;20107;-72
2022/05/23 10:28:42;;;;;;;5.07;4.03;;;25.30;50.30;;;;;;4827361;29;20058;-73
2022/05/23 10:31:17;;;;;;;9.47;4.50;;;25.20;48.90;;;;;;4832315;29;20519;-73
2022/05/23 10:33:47;;;;;;;8.27;4.40;;;25.30;50.30;;;;;;4819671;29;20531;-73
2022/05/23 10:36:24;;;;;;;5.53;3.57;;;25.30;50.60;;;;;;4831825;29;20081;-73
2022/05/23 10:42:17;;;;;;;5.93;4.40;;;25.60;50.50;;;;;;4848739;29;20069;-73
2022/05/23 10:45:14;;;;;;;6.47;3.87;;;25.80;50.20;;;;;;4813854;29;20114;-73
2022/05/23 10:47:58;;;;;;;7.27;3.93;;;25.90;49.60;;;;;;4845512;29;20049;-72
2022/05/23 10:50:39;;;;;;;5.65;3.40;;;25.90;48.60;;;;;;4830407;29;20046;-73
2022/05/23 10:53:19;;;;;;;6.97;3.57;;;26.00;49.40;;;;;;4799286;29;20561;-73
2022/05/23 10:56:15;;;;;;;7.33;3.40;;;26.20;48.70;;;;;;4840762;29;20426;-73
2022/05/23 10:58:42;;;;;;;;;;;26.20;48.10;;;;;;4799784;29;20044;-73
2022/05/23 11:01:26;;;;;;;5.97;3.40;;;26.00;48.40;;;;;;4843036;29;19920;-73
2022/05/23 11:04:16;;;;;;;6.57;3.20;;;26.00;47.80;;;;;;4830309;29;20051;-73
2022/05/23 11:07:02;;;;;;;5.37;3.27;;;26.00;49.10;;;;;;4812129;29;20130;-73
2022/05/23 11:09:51;;;;;;;6.80;3.03;;;26.10;48.00;;;;;;4831484;29;20081;-73
2022/05/23 11:12:40;;;;;;;4.77;3.17;;;26.30;48.80;;;;;;4842617;29;20409;-73
2022/05/23 11:15:29;;;;;;;6.10;3.00;;;26.50;48.20;;;;;;4812086;29;20065;-73
2022/05/23 11:18:02;;;;;;;5.07;2.97;;;26.70;46.30;;;;;;4829591;29;20519;-73
2022/05/23 11:20:36;;;;;;;9.77;3.17;;;26.70;46.70;;;;;;4802841;29;20045;-73
2022/05/23 11:23:11;;;;;;;5.47;3.05;;;26.60;47.50;;;;;;4847771;29;20062;-72
2022/05/23 11:25:43;;;;;;;;;;;26.60;47.10;;;;;;4852191;29;20057;-73
2022/05/23 11:34:30;;;;;;;5.97;3.00;;;27.00;46.10;;;;;;4850072;29;20073;-72
2022/05/23 11:37:08;;;;;;;5.10;2.60;;;26.90;45.30;;;;;;4832422;29;20092;-73
2022/05/23 11:39:51;;;;;;;4.17;2.67;;;26.90;46.00;;;;;;4817862;29;20088;-73
2022/05/23 11:42:58;;;;;;;4.60;1.93;;;26.90;45.90;;;;;;4853247;29;20639;-73
2022/05/23 11:48:33;;;;;;;3.77;2.10;;;27.20;45.40;;;;;;4824544;29;20101;-72
2022/05/23 11:51:23;;;;;;;6.63;2.23;;;27.30;44.40;;;;;;4854538;29;20046;-73
2022/05/23 11:54:03;;;;;;;3.87;2.17;;;27.50;45.30;;;;;;4842616;29;20038;-71
2022/05/23 11:56:39;;;;;;;3.73;1.57;;;27.60;44.40;;;;;;4853166;29;20566;-72
2022/05/23 11:59:12;;;;;;;4.30;2.10;;;27.60;44.00;;;;;;4840604;29;20070;-72
2022/05/23 12:01:39;;;;;;;4.77;2.00;;;27.80;44.10;;;;;;4823114;29;20408;-72
2022/05/23 12:04:04;;;;;;;4.20;1.77;;;27.90;43.70;;;;;;4821447;29;20086;-72
2022/05/23 12:06:30;;;;;;;5.97;1.73;;;28.10;42.80;;;;;;4853214;29;20085;-72
2022/05/23 12:09:01;;;;;;;5.07;1.60;;;28.20;42.90;;;;;;4852793;29;20054;-72
2022/05/23 12:11:42;;;;;;;5.70;1.63;;;28.20;42.50;;;;;;4854762;29;20077;-72
2022/05/23 12:14:33;;;;;;;3.70;1.67;;;28.10;41.50;;;;;;4847046;29;20054;-72
2022/05/23 12:17:06;;;;;;;3.23;2.00;;;28.10;42.90;;;;;;4851962;29;20121;-72
2022/05/23 12:19:41;;;;;;;5.77;1.93;;;28.20;43.20;;;;;;4822027;29;20061;-72
2022/05/23 12:22:26;;;;;;;4.57;2.00;;;28.20;42.10;;;;;;4851487;29;20050;-72
2022/05/23 12:25:10;;;;;;;4.87;2.20;;;28.10;42.10;;;;;;4848562;29;20113;-72
2022/05/23 12:27:43;;;;;;;5.55;2.05;;;27.80;42.40;;;;;;4854862;29;20054;-73
2022/05/23 12:30:20;;;;;;;3.07;1.90;;;27.60;43.00;;;;;;4828734;29;20051;-72
2022/05/23 12:33:09;;;;;;;4.93;1.67;;;27.30;43.40;;;;;;4850298;29;20054;-72
2022/05/23 12:35:41;;;;;;;4.60;1.97;;;27.10;44.00;;;;;;4852248;29;20047;-72
2022/05/23 12:38:31;;;;;;;3.83;2.40;;;26.90;45.40;;;;;;4855140;29;20499;-72
2022/05/23 12:41:15;;;;;;;3.50;1.63;;;26.70;45.80;;;;;;4842811;29;20575;-72
2022/05/23 12:43:50;;;;;;;2.88;1.73;;;26.60;46.30;;;;;;4853397;29;20093;-72
2022/05/23 12:46:32;;;;;;;;;;;26.40;46.40;;;;;;4847260;29;20050;-72
2022/05/23 12:49:03;;;;;;;5.83;1.53;;;26.20;46.00;;;;;;4842084;29;19941;-72
2022/05/23 12:51:40;;;;;;;3.87;1.70;;;26.00;47.00;;;;;;4833868;29;20504;-72
2022/05/23 12:54:21;;;;;;;3.27;1.80;;;25.80;48.40;;;;;;4826892;29;20046;-72
2022/05/23 12:57:19;;;;;;;5.70;1.50;;;25.60;49.60;;;;;;4828250;29;20046;-72
2022/05/23 12:59:54;;;;;;;4.03;1.80;;;25.50;50.50;;;;;;4823758;29;20054;-72
2022/05/23 13:02:38;;;;;;;4.70;1.63;;;25.30;49.60;;;;;;4835739;29;20054;-72
2022/05/23 13:05:17;;;;;;;3.67;2.00;;;25.10;50.30;;;;;;4823452;29;20073;-72
2022/05/23 13:07:54;;;;;;;5.80;2.23;;;24.90;51.10;;;;;;4821893;29;20141;-72
2022/05/23 13:10:32;;;;;;;4.93;2.53;;;24.70;52.20;;;;;;4837182;29;20555;-72
2022/05/23 13:13:11;;;;;;;4.70;2.80;;;24.60;53.80;;;;;;4856367;29;20103;-72
2022/05/23 13:15:37;;;;;;;4.17;2.40;;;24.40;54.60;;;;;;4806190;29;20125;-72
2022/05/23 13:23:39;;;;;;;4.75;2.10;;;23.90;56.50;;;;;;4842537;29;20054;-72
2022/05/23 13:26:08;;;;;;;4.00;2.33;;;23.80;55.50;;;;;;4807194;29;20049;-72
2022/05/23 13:28:47;;;;;;;4.97;2.00;;;23.60;54.80;;;;;;4819800;29;20074;-72
2022/05/23 13:31:34;;;;;;;5.20;1.70;;;23.60;55.10;;;;;;4822897;29;20392;-72
2022/05/23 13:34:00;;;;;;;5.00;2.20;;;23.70;53.50;;;;;;4806229;29;20054;-72
2022/05/23 13:36:48;;;;;;;4.27;2.90;;;23.60;54.10;;;;;;4851670;29;20107;-72
2022/05/23 13:39:16;;;;;;;3.17;2.83;;;23.70;54.40;;;;;;4819126;29;20034;-71
2022/05/23 13:41:43;;;;;;;6.07;3.43;;;23.80;55.00;;;;;;4823483;29;20050;-72
2022/05/23 13:44:24;;;;;;;4.63;3.07;;;23.90;55.30;;;;;;4814975;29;20154;-72
2022/05/23 13:46:58;;;;;;;4.63;2.53;;;24.10;55.40;;;;;;4797987;29;20054;-72
2022/05/23 13:49:50;;;;;;;6.23;2.97;;;24.30;54.70;;;;;;4817348;29;20492;-72
2022/05/23 13:52:47;;;;;;;7.90;3.00;;;24.50;53.10;;;;;;4827404;29;20106;-72
2022/05/23 13:55:25;;;;;;;6.70;3.07;;;24.70;52.80;;;;;;4800244;29;20065;-72
2022/05/23 13:58:01;;;;;;;6.33;2.90;;;24.70;52.50;;;;;;4833140;29;20594;-72
2022/05/23 14:00:43;;;;;;;5.70;2.60;;;24.70;52.30;;;;;;4815505;29;20042;-72
2022/05/23 14:03:36;;;;;;;7.30;2.87;;;24.60;51.80;;;;;;4831789;29;20739;-72
2022/05/23 14:06:07;;;;;;;5.90;2.40;;;24.60;51.60;;;;;;4813249;29;20426;-72
2022/05/23 14:08:38;;;;;;;4.50;2.13;;;24.60;51.10;;;;;;4814282;29;20050;-72
2022/05/23 14:11:17;;;;;;;4.53;2.40;;;24.40;50.50;;;;;;4814815;29;20054;-72
2022/05/23 14:13:44;;;;;;;5.17;2.17;;;24.30;50.60;;;;;;4815716;29;20043;-72
2022/05/23 14:16:15;;;;;;;4.53;2.27;;;24.20;50.50;;;;;;4799659;29;20054;-72